ヌーク の空港の天気 - METARとTAF

ヌーク空港 ( BGGH / GOH ) - グリーンランド ヌーク
飛行場実況気象(Metar)
観測時間11/14 13:50 WGT (11/14 16:50 UTC)
風向・風速東南東 2m/s
視程10km以上
天気現象
少しの雲 雲底高度 1680m
全天の8割程度の雲 雲底高度 2440m
気温-2℃
湿度74%
気圧996hPa
METARBGGH 141650Z 12003KT 9999 FEW055 BKN080 M02/M06 Q0996
過去の天気等 Google飛行場航空写真 Wunderground天気予報

過去48時間のMETAR

飛行場予報(TAF)
発表時間: 11/14 11:11 WGT (11/14 14:11 UTC)
予報対象時間: 14日12時 WGT ~ 14日20時 WGT
風向・風速不定 2m/s
視程10km以上
全天の8割程度の雲 雲底高度 3050m
14日12時 WGT ~ 14日15時 WGT に一時的に
全天の8割程度の雲 雲底高度 760m
14日15時 WGT から
風向・風速南 5m/s
視程10km以上
全天の8割程度の雲 雲底高度 1220m
14日15時 WGT ~ 14日18時 WGT に一時的に
全天の8割程度の雲 雲底高度 760m
14日18時 WGT ~ 14日20時 WGT に一時的に
視程4000m
天気現象弱い雪
全天の4割程度の雲 雲底高度 370m
全天の8割程度の雲 雲底高度 610m
TAF BGGH 141411Z 1415/1423 VRB03KT 9999 BKN100
TEMPO 1415/1418 BKN025
FM141800 17010KT 9999 BKN040
TEMPO 1418/1421 BKN025
TEMPO 1421/1423 4000 -SN SCT012 BKN020